createdAt,value
2023-05-10T00:01:04.854Z,98627.13
2023-05-10T00:03:32.529Z,98628.59
2023-05-10T00:06:00.112Z,98632.19
2023-05-10T00:08:27.579Z,98627.72
2023-05-10T00:10:55.089Z,98630.41
2023-05-10T00:13:23.227Z,98627.25
2023-05-10T00:15:51.950Z,98629.28
2023-05-10T00:18:19.439Z,98633.91
2023-05-10T00:20:47.333Z,98631.66
2023-05-10T00:23:15.032Z,98628.00
2023-05-10T00:25:42.503Z,98626.06
2023-05-10T00:28:10.201Z,98626.84
2023-05-10T00:30:38.579Z,98628.44
2023-05-10T00:33:06.141Z,98628.56
2023-05-10T00:35:33.812Z,98617.66
2023-05-10T00:38:01.443Z,98623.31
2023-05-10T00:40:29.960Z,98627.56
2023-05-10T00:43:02.697Z,98624.69
2023-05-10T00:45:32.566Z,98628.41
2023-05-10T00:48:02.492Z,98630.09
2023-05-10T00:50:30.466Z,98625.84
2023-05-10T00:52:59.456Z,98626.53
2023-05-10T00:55:27.352Z,98619.25
2023-05-10T00:57:55.541Z,98615.56
2023-05-10T01:00:23.354Z,98619.16
2023-05-10T01:02:51.517Z,98617.06
2023-05-10T01:05:19.221Z,98615.59
2023-05-10T01:07:46.984Z,98613.47
2023-05-10T01:10:14.659Z,98617.41
2023-05-10T01:12:45.732Z,98625.84
2023-05-10T01:15:14.574Z,98604.63
2023-05-10T01:17:45.654Z,98611.13
2023-05-10T01:20:14.153Z,98604.63
2023-05-10T01:23:00.264Z,98617.66
2023-05-10T01:25:39.773Z,98609.84
2023-05-10T01:28:34.888Z,98616.69
2023-05-10T01:31:17.694Z,98602.22
2023-05-10T01:34:00.631Z,98604.88
2023-05-10T01:36:33.875Z,98605.22
2023-05-10T01:39:11.072Z,98603.03
2023-05-10T01:41:52.789Z,98593.25
2023-05-10T01:44:43.157Z,98594.03
2023-05-10T01:47:12.245Z,98592.34
2023-05-10T01:49:48.958Z,98594.22
2023-05-10T01:52:20.681Z,98607.91
2023-05-10T01:54:57.321Z,98605.94
2023-05-10T01:57:29.152Z,98606.06
2023-05-10T02:00:00.020Z,98593.66
2023-05-10T02:02:28.889Z,98593.09
2023-05-10T02:04:58.518Z,98591.47
2023-05-10T02:07:28.191Z,98588.94
2023-05-10T02:09:57.204Z,98583.38
2023-05-10T02:12:26.981Z,98579.72
2023-05-10T02:14:56.417Z,98571.47
2023-05-10T02:17:26.112Z,98580.28
2023-05-10T02:19:55.413Z,98579.84
2023-05-10T02:22:25.841Z,98581.25
2023-05-10T02:24:55.507Z,98576.00
2023-05-10T02:27:25.054Z,98581.94
2023-05-10T02:29:53.886Z,98577.03
2023-05-10T02:32:25.449Z,98572.38
2023-05-10T02:34:54.283Z,98563.41
2023-05-10T02:37:23.016Z,98576.31
2023-05-10T02:39:52.160Z,98574.78
2023-05-10T02:42:26.697Z,98587.53
2023-05-10T02:45:02.530Z,98576.25
2023-05-10T02:47:32.689Z,98573.47
2023-05-10T02:50:00.784Z,98564.25
2023-05-10T02:52:32.459Z,98574.72
2023-05-10T02:55:04.672Z,98569.81
2023-05-10T02:57:37.437Z,98568.03
2023-05-10T03:00:05.510Z,98558.56
2023-05-10T03:02:33.939Z,98563.78
2023-05-10T03:05:02.297Z,98567.78
2023-05-10T03:07:31.143Z,98563.16
2023-05-10T03:10:00.502Z,98570.16
2023-05-10T03:13:04.656Z,98566.34
2023-05-10T03:15:59.420Z,98563.28
2023-05-10T03:18:41.755Z,98565.94
2023-05-10T03:21:13.625Z,98561.56
2023-05-10T03:23:46.031Z,98552.22
2023-05-10T03:26:27.903Z,98559.56
2023-05-10T03:29:04.932Z,98556.41
2023-05-10T03:31:32.590Z,98555.13
2023-05-10T03:34:01.198Z,98555.81
2023-05-10T03:36:28.789Z,98545.41
2023-05-10T03:38:57.054Z,98548.38
2023-05-10T03:41:26.753Z,98550.88
2023-05-10T03:43:55.160Z,98553.31
2023-05-10T03:46:23.164Z,98548.97
2023-05-10T03:48:50.908Z,98544.88
2023-05-10T03:51:19.115Z,98543.22
2023-05-10T03:53:46.587Z,98543.06
2023-05-10T03:56:14.109Z,98537.00
2023-05-10T03:58:41.716Z,98540.13
2023-05-10T04:01:09.280Z,98542.69
2023-05-10T04:03:37.981Z,98528.03
2023-05-10T04:06:06.865Z,98539.47
2023-05-10T04:08:34.417Z,98530.31
2023-05-10T04:11:12.436Z,98523.63
2023-05-10T04:13:40.204Z,98528.09
2023-05-10T04:16:07.882Z,98527.81
2023-05-10T04:18:35.499Z,98518.19
2023-05-10T04:21:03.046Z,98515.25
2023-05-10T04:23:30.614Z,98519.28
2023-05-10T04:26:02.164Z,98520.06
2023-05-10T04:28:29.808Z,98514.13
2023-05-10T04:31:07.326Z,98506.19
2023-05-10T04:33:35.164Z,98496.22
2023-05-10T04:36:03.458Z,98508.47
2023-05-10T04:38:31.028Z,98508.97
2023-05-10T04:41:11.815Z,98496.53
2023-05-10T04:43:39.957Z,98486.59
2023-05-10T04:46:08.686Z,98483.72
2023-05-10T04:48:36.254Z,98485.06
2023-05-10T04:51:05.224Z,98482.72
2023-05-10T04:53:32.814Z,98484.44
2023-05-10T04:56:00.312Z,98477.50
2023-05-10T04:58:27.760Z,98487.56
2023-05-10T05:00:55.276Z,98472.50
2023-05-10T05:03:23.715Z,98470.81
2023-05-10T05:05:51.155Z,98471.91
2023-05-10T05:08:18.802Z,98461.50
2023-05-10T05:10:46.371Z,98460.16
2023-05-10T05:13:14.451Z,98472.38
2023-05-10T05:15:42.370Z,98462.25
2023-05-10T05:18:09.932Z,98464.16
2023-05-10T05:20:37.574Z,98452.00
2023-05-10T05:23:05.056Z,98452.72
2023-05-10T05:25:32.817Z,98456.06
2023-05-10T05:28:00.348Z,98446.44
2023-05-10T05:30:28.228Z,98452.84
2023-05-10T05:32:56.199Z,98443.94
2023-05-10T05:35:23.789Z,98444.66
2023-05-10T05:37:51.397Z,98441.09
2023-05-10T05:40:18.918Z,98440.56
2023-05-10T05:42:47.673Z,98441.28
2023-05-10T05:45:15.917Z,98438.47
2023-05-10T05:47:43.692Z,98416.53
2023-05-10T05:50:11.504Z,98441.31
2023-05-10T05:52:39.025Z,98436.78
2023-05-10T05:55:06.702Z,98435.72
2023-05-10T05:57:34.261Z,98421.19
2023-05-10T06:00:01.849Z,98434.81
2023-05-10T06:02:40.252Z,98430.16
2023-05-10T06:05:08.548Z,98426.09
2023-05-10T06:07:36.149Z,98415.19
2023-05-10T06:10:04.257Z,98420.38
2023-05-10T06:12:31.848Z,98407.59
2023-05-10T06:14:59.380Z,98407.78
2023-05-10T06:17:26.873Z,98413.47
2023-05-10T06:19:54.487Z,98402.19
2023-05-10T06:22:23.948Z,98396.06
2023-05-10T06:24:51.376Z,98397.06
2023-05-10T06:27:18.847Z,98387.94
2023-05-10T06:29:46.313Z,98387.38
2023-05-10T06:32:13.753Z,98387.19
2023-05-10T06:34:41.289Z,98390.06
2023-05-10T06:37:08.721Z,98384.50
2023-05-10T06:39:36.156Z,98397.69
2023-05-10T06:42:05.868Z,98392.13
2023-05-10T06:44:33.979Z,98385.94
2023-05-10T06:47:01.616Z,98380.81
2023-05-10T06:49:29.079Z,98369.38
2023-05-10T06:51:59.820Z,98389.22
2023-05-10T06:54:27.219Z,98376.06
2023-05-10T06:56:55.268Z,98372.06
2023-05-10T06:59:22.959Z,98371.41
2023-05-10T07:01:50.503Z,98367.44
2023-05-10T07:04:19.140Z,98360.50
2023-05-10T07:06:47.744Z,98359.16
2023-05-10T07:09:15.257Z,98356.72
2023-05-10T07:11:43.073Z,98353.47
2023-05-10T07:14:10.876Z,98353.00
2023-05-10T07:16:38.675Z,98351.44
2023-05-10T07:19:06.886Z,98337.72
2023-05-10T07:21:34.392Z,98324.94
2023-05-10T07:24:02.249Z,98330.25
2023-05-10T07:26:30.221Z,98335.09
2023-05-10T07:28:57.702Z,98334.06
2023-05-10T07:31:25.174Z,98327.41
2023-05-10T07:33:52.765Z,98338.56
2023-05-10T07:36:20.382Z,98333.56
2023-05-10T07:38:47.994Z,98329.06
2023-05-10T07:41:15.559Z,98318.66
2023-05-10T07:43:42.977Z,98323.94
2023-05-10T07:46:11.506Z,98316.66
2023-05-10T07:48:39.065Z,98319.88
2023-05-10T07:51:08.661Z,98320.25
2023-05-10T07:53:36.454Z,98301.78
2023-05-10T07:56:30.886Z,98323.53
2023-05-10T07:58:58.615Z,98313.13
2023-05-10T08:01:26.723Z,98317.22
2023-05-10T08:03:54.768Z,98301.28
2023-05-10T08:06:23.495Z,98289.88
2023-05-10T08:08:51.844Z,98289.22
2023-05-10T08:11:19.970Z,98300.06
2023-05-10T08:13:48.657Z,98300.56
2023-05-10T08:16:16.946Z,98292.53
2023-05-10T08:18:46.756Z,98293.59
2023-05-10T08:21:15.227Z,98301.41
2023-05-10T08:23:42.835Z,98281.91
2023-05-10T08:26:10.350Z,98274.25
2023-05-10T08:28:37.817Z,98268.59
2023-05-10T08:31:06.401Z,98270.25
2023-05-10T08:33:33.929Z,98256.44
2023-05-10T08:36:01.498Z,98254.47
2023-05-10T08:38:29.074Z,98250.19
2023-05-10T08:41:00.073Z,98256.44
2023-05-10T08:43:31.466Z,98246.47
2023-05-10T08:46:02.609Z,98243.53
2023-05-10T08:48:32.301Z,98250.75
2023-05-10T08:51:02.047Z,98245.19
2023-05-10T08:53:34.470Z,98247.94
2023-05-10T08:56:03.593Z,98242.91
2023-05-10T08:58:32.093Z,98226.63
2023-05-10T09:01:00.682Z,98226.16
2023-05-10T09:03:28.246Z,98229.88
2023-05-10T09:05:57.199Z,98219.06
2023-05-10T09:08:28.943Z,98230.91
2023-05-10T09:10:56.803Z,98221.69
2023-05-10T09:13:25.705Z,98229.59
2023-05-10T09:15:54.404Z,98223.41
2023-05-10T09:18:21.899Z,98217.75
2023-05-10T09:20:50.288Z,98217.03
2023-05-10T09:23:17.781Z,98207.66
2023-05-10T09:25:45.238Z,98208.28
2023-05-10T09:28:13.255Z,98210.34
2023-05-10T09:30:40.982Z,98199.44
2023-05-10T09:33:09.190Z,98206.91
2023-05-10T09:35:37.407Z,98196.78
2023-05-10T09:38:06.706Z,98212.91
2023-05-10T09:40:34.175Z,98194.03
2023-05-10T09:43:04.644Z,98197.41
2023-05-10T09:45:36.201Z,98195.84
2023-05-10T09:48:06.240Z,98179.44
2023-05-10T09:50:33.701Z,98178.28
2023-05-10T09:53:04.517Z,98177.72
2023-05-10T09:55:47.179Z,98187.19
2023-05-10T09:58:15.577Z,98172.84
2023-05-10T10:00:53.562Z,98167.75
2023-05-10T10:03:22.525Z,98173.53
2023-05-10T10:05:50.470Z,98161.00
2023-05-10T10:08:19.337Z,98169.75
2023-05-10T10:10:48.285Z,98158.50
2023-05-10T10:13:16.746Z,98159.75
2023-05-10T10:15:45.791Z,98150.06
2023-05-10T10:18:16.772Z,98137.78
2023-05-10T10:20:44.418Z,98139.50
2023-05-10T10:23:11.933Z,98135.38
2023-05-10T10:25:40.121Z,98132.25
2023-05-10T10:28:29.082Z,98134.28
2023-05-10T10:31:01.483Z,98131.44
2023-05-10T10:33:52.573Z,98133.16
2023-05-10T10:36:20.822Z,98133.34
2023-05-10T10:38:48.156Z,98122.19
2023-05-10T10:41:50.845Z,98123.50
2023-05-10T10:44:28.658Z,98118.97
2023-05-10T10:47:09.724Z,98107.09
2023-05-10T10:49:45.322Z,98111.75
2023-05-10T10:52:16.703Z,98112.91
2023-05-10T10:54:55.953Z,98105.53
2023-05-10T10:57:23.523Z,98104.47
2023-05-10T10:59:51.093Z,98090.06
2023-05-10T11:02:36.594Z,98093.16
2023-05-10T11:05:37.706Z,98099.00
2023-05-10T11:08:09.500Z,98084.81
2023-05-10T11:10:37.144Z,98082.75
2023-05-10T11:13:10.216Z,98085.91
2023-05-10T11:15:39.690Z,98078.09
2023-05-10T11:18:27.024Z,98065.28
2023-05-10T11:20:59.936Z,98078.03
2023-05-10T11:23:57.546Z,98072.34
2023-05-10T11:26:27.413Z,98064.50
2023-05-10T11:28:59.781Z,98066.53
2023-05-10T11:31:28.171Z,98063.78
2023-05-10T11:33:58.438Z,98061.66
2023-05-10T11:36:28.827Z,98063.78
2023-05-10T11:39:04.306Z,98062.22
2023-05-10T11:41:32.620Z,98059.63
2023-05-10T11:44:00.285Z,98044.91
2023-05-10T11:46:29.725Z,98047.00
2023-05-10T11:49:05.843Z,98040.28
2023-05-10T11:51:37.225Z,98035.63
2023-05-10T11:54:10.655Z,98035.13
2023-05-10T11:56:41.964Z,98033.09
2023-05-10T11:59:09.568Z,98020.94
2023-05-10T12:01:37.890Z,98017.28
2023-05-10T12:04:08.379Z,98020.78
2023-05-10T12:06:42.203Z,98020.53
2023-05-10T12:09:10.339Z,98010.19
2023-05-10T12:11:43.996Z,98017.28
2023-05-10T12:14:12.735Z,98008.63
2023-05-10T12:16:40.295Z,97999.66
2023-05-10T12:19:08.049Z,97993.31
2023-05-10T12:21:35.919Z,97988.19
2023-05-10T12:24:08.868Z,98000.97
2023-05-10T12:26:37.474Z,97983.28
2023-05-10T12:29:18.151Z,97987.78
2023-05-10T12:31:56.848Z,97990.94
2023-05-10T12:34:43.488Z,97990.31
2023-05-10T12:37:11.115Z,97980.63
2023-05-10T12:39:43.584Z,97987.09
2023-05-10T12:42:11.955Z,97993.38
2023-05-10T12:44:40.031Z,97979.69
2023-05-10T12:47:07.491Z,97973.41
2023-05-10T12:49:35.370Z,97971.47
2023-05-10T12:52:03.146Z,97974.09
2023-05-10T12:54:30.751Z,97963.97
2023-05-10T12:56:58.288Z,97961.72
2023-05-10T12:59:25.901Z,97968.97
2023-05-10T13:01:53.425Z,97952.25
2023-05-10T13:04:20.926Z,97955.19
2023-05-10T13:06:48.590Z,97955.84
2023-05-10T13:09:16.577Z,97957.66
2023-05-10T13:11:44.078Z,97949.56
2023-05-10T13:14:11.545Z,97957.16
2023-05-10T13:16:39.158Z,97955.50
2023-05-10T13:19:06.895Z,97941.25
2023-05-10T13:21:34.458Z,97945.94
2023-05-10T13:24:02.648Z,97954.59
2023-05-10T13:26:30.293Z,97954.22
2023-05-10T13:28:57.963Z,97948.16
2023-05-10T13:31:25.488Z,97956.03
2023-05-10T13:33:53.040Z,97945.84
2023-05-10T13:36:20.513Z,97945.72
2023-05-10T13:38:48.040Z,97944.25
2023-05-10T13:41:15.746Z,97942.06
2023-05-10T13:43:43.152Z,97939.22
2023-05-10T13:46:10.811Z,97928.38
2023-05-10T13:48:39.090Z,97925.34
2023-05-10T13:51:06.743Z,97924.28
2023-05-10T13:53:34.744Z,97930.84
2023-05-10T13:56:03.506Z,97934.88
2023-05-10T13:58:31.026Z,97932.03
2023-05-10T14:00:58.453Z,97934.75
2023-05-10T14:03:26.168Z,97936.88
2023-05-10T14:05:53.773Z,97933.41
2023-05-10T14:08:21.475Z,97940.88
2023-05-10T14:10:49.994Z,97934.84
2023-05-10T14:13:17.519Z,97935.25
2023-05-10T14:15:45.028Z,97941.06
2023-05-10T14:18:12.617Z,97928.94
2023-05-10T14:20:40.303Z,97936.09
2023-05-10T14:23:09.802Z,97938.75
2023-05-10T14:25:39.400Z,97933.09
2023-05-10T14:28:07.098Z,97929.66
2023-05-10T14:30:37.874Z,97939.78
2023-05-10T14:33:05.567Z,97917.13
2023-05-10T14:35:33.256Z,97923.31
2023-05-10T14:38:00.786Z,97927.97
2023-05-10T14:40:28.334Z,97925.25
2023-05-10T14:42:56.080Z,97918.31
2023-05-10T14:45:24.259Z,97924.88
2023-05-10T14:47:51.843Z,97923.75
2023-05-10T14:50:35.235Z,97936.28
2023-05-10T14:53:03.816Z,97931.38
2023-05-10T14:55:31.436Z,97929.41
2023-05-10T14:57:59.778Z,97923.19
2023-05-10T15:00:29.035Z,97922.84
2023-05-10T15:02:57.140Z,97920.13
2023-05-10T15:05:25.275Z,97925.22
2023-05-10T15:07:52.837Z,97921.34
2023-05-10T15:10:20.385Z,97913.22
2023-05-10T15:12:48.104Z,97923.00
2023-05-10T15:15:16.437Z,97918.47
2023-05-10T15:17:44.126Z,97921.69
2023-05-10T15:20:11.966Z,97923.97
2023-05-10T15:22:39.772Z,97920.91
2023-05-10T15:25:07.624Z,97909.25
2023-05-10T15:27:35.199Z,97912.50
2023-05-10T15:30:02.719Z,97917.13
2023-05-10T15:32:31.505Z,97917.19
2023-05-10T15:34:59.892Z,97912.16
2023-05-10T15:37:27.571Z,97907.91
2023-05-10T15:39:56.347Z,97905.22
2023-05-10T15:42:25.055Z,97916.91
2023-05-10T15:44:52.484Z,97926.66
2023-05-10T15:47:20.365Z,97921.25
2023-05-10T15:49:47.966Z,97921.63
2023-05-10T15:52:15.987Z,97916.25
2023-05-10T15:54:43.487Z,97934.50
2023-05-10T15:57:11.055Z,97930.25
2023-05-10T15:59:38.692Z,97924.84
2023-05-10T16:02:07.600Z,97933.38
2023-05-10T16:04:35.163Z,97922.50
2023-05-10T16:07:02.936Z,97927.53
2023-05-10T16:09:30.617Z,97933.00
2023-05-10T16:11:58.231Z,97927.16
2023-05-10T16:14:25.749Z,97927.56
2023-05-10T16:16:53.567Z,97932.22
2023-05-10T16:19:21.536Z,97927.56
2023-05-10T16:21:49.313Z,97932.56
2023-05-10T16:24:18.392Z,97929.06
2023-05-10T16:26:46.279Z,97929.81
2023-05-10T16:29:14.657Z,97935.28
2023-05-10T16:31:42.180Z,97927.47
2023-05-10T16:34:09.911Z,97928.28
2023-05-10T16:36:37.544Z,97918.19
2023-05-10T16:39:05.205Z,97934.09
2023-05-10T16:41:36.237Z,97934.06
2023-05-10T16:44:04.641Z,97930.53
2023-05-10T16:46:33.816Z,97931.28
2023-05-10T16:49:02.022Z,97926.19
2023-05-10T16:51:29.810Z,97930.44
2023-05-10T16:53:57.343Z,97925.72
2023-05-10T16:56:24.951Z,97929.53
2023-05-10T16:58:52.559Z,97928.75
2023-05-10T17:01:20.045Z,97935.72
2023-05-10T17:03:47.814Z,97938.34
2023-05-10T17:06:15.436Z,97930.53
2023-05-10T17:08:43.526Z,97921.56
2023-05-10T17:11:10.972Z,97925.09
2023-05-10T17:13:39.187Z,97929.72
2023-05-10T17:16:08.449Z,97923.53
2023-05-10T17:18:36.892Z,97933.63
2023-05-10T17:21:04.840Z,97928.63
2023-05-10T17:23:32.479Z,97934.78
2023-05-10T17:26:01.668Z,97923.19
2023-05-10T17:28:29.413Z,97930.16
2023-05-10T17:31:00.453Z,97937.16
2023-05-10T17:33:28.074Z,97927.41
2023-05-10T17:35:56.606Z,97929.31
2023-05-10T17:38:24.184Z,97926.13
2023-05-10T17:40:52.002Z,97935.72
2023-05-10T17:43:20.622Z,97925.97
2023-05-10T17:45:49.971Z,97926.84
2023-05-10T17:48:17.650Z,97931.44
2023-05-10T17:50:45.343Z,97931.06
2023-05-10T17:53:12.891Z,97927.13
2023-05-10T17:55:41.803Z,97931.44
2023-05-10T17:58:11.600Z,97927.94
2023-05-10T18:00:39.839Z,97927.50
2023-05-10T18:03:07.475Z,97924.41
2023-05-10T18:05:39.667Z,97929.88
2023-05-10T18:08:07.825Z,97923.13
2023-05-10T18:10:35.318Z,97921.50
2023-05-10T18:13:05.422Z,97933.06
2023-05-10T18:15:34.936Z,97926.03
2023-05-10T18:18:04.390Z,97920.19
2023-05-10T18:20:32.594Z,97923.22
2023-05-10T18:23:00.281Z,97915.09
2023-05-10T18:25:27.827Z,97920.56
2023-05-10T18:27:55.462Z,97916.41
2023-05-10T18:30:23.030Z,97922.09
2023-05-10T18:32:50.668Z,97920.94
2023-05-10T18:35:19.209Z,97924.34
2023-05-10T18:37:47.613Z,97908.44
2023-05-10T18:40:15.125Z,97909.94
2023-05-10T18:42:42.621Z,97915.81
2023-05-10T18:45:10.227Z,97916.16
2023-05-10T18:47:38.105Z,97913.06
2023-05-10T18:50:05.967Z,97917.41
2023-05-10T18:52:33.537Z,97910.91
2023-05-10T18:55:01.646Z,97915.22
2023-05-10T18:57:29.849Z,97919.13
2023-05-10T18:59:57.333Z,97912.56
2023-05-10T19:02:26.941Z,97904.06
2023-05-10T19:04:54.576Z,97910.25
2023-05-10T19:07:22.048Z,97908.72
2023-05-10T19:09:49.676Z,97906.44
2023-05-10T19:12:18.863Z,97905.25
2023-05-10T19:14:46.338Z,97902.56
2023-05-10T19:17:15.377Z,97904.13
2023-05-10T19:19:44.404Z,97906.88
2023-05-10T19:22:12.114Z,97903.34
2023-05-10T19:24:39.561Z,97900.31
2023-05-10T19:27:07.058Z,97902.25
2023-05-10T19:29:34.554Z,97902.63
2023-05-10T19:32:02.156Z,97905.72
2023-05-10T19:34:30.229Z,97897.59
2023-05-10T19:36:58.721Z,97903.44
2023-05-10T19:39:27.190Z,97912.72
2023-05-10T19:41:54.739Z,97906.50
2023-05-10T19:44:23.126Z,97897.59
2023-05-10T19:46:51.440Z,97901.13
2023-05-10T19:49:19.182Z,97902.28
2023-05-10T19:51:46.621Z,97900.31
2023-05-10T19:54:14.190Z,97901.84
2023-05-10T19:56:41.712Z,97895.28
2023-05-10T19:59:09.947Z,97902.63
2023-05-10T20:01:37.696Z,97902.22
2023-05-10T20:04:05.294Z,97899.50
2023-05-10T20:06:33.316Z,97906.06
2023-05-10T20:09:00.897Z,97890.94
2023-05-10T20:11:28.350Z,97897.94
2023-05-10T20:13:55.877Z,97892.09
2023-05-10T20:16:26.440Z,97894.03
2023-05-10T20:18:54.856Z,97887.81
2023-05-10T20:21:22.788Z,97898.63
2023-05-10T20:23:50.441Z,97887.03
2023-05-10T20:26:18.046Z,97890.13
2023-05-10T20:28:45.550Z,97895.53
2023-05-10T20:31:13.106Z,97887.75
2023-05-10T20:33:40.580Z,97896.66
2023-05-10T20:36:09.951Z,97889.28
2023-05-10T20:38:37.435Z,97892.75
2023-05-10T20:41:04.978Z,97888.50
2023-05-10T20:43:32.466Z,97897.03
2023-05-10T20:46:05.623Z,97899.34
2023-05-10T20:48:33.428Z,97894.31
2023-05-10T20:51:02.522Z,97879.50
2023-05-10T20:53:30.283Z,97899.72
2023-05-10T20:55:57.825Z,97894.66
2023-05-10T20:58:25.282Z,97891.53
2023-05-10T21:00:52.788Z,97890.78
2023-05-10T21:03:20.201Z,97889.53
2023-05-10T21:05:48.884Z,97888.41
2023-05-10T21:08:16.349Z,97889.91
2023-05-10T21:10:43.958Z,97885.19
2023-05-10T21:13:11.476Z,97889.47
2023-05-10T21:15:38.951Z,97893.72
2023-05-10T21:18:06.633Z,97894.06
2023-05-10T21:20:34.243Z,97885.16
2023-05-10T21:23:01.755Z,97885.94
2023-05-10T21:25:29.329Z,97886.66
2023-05-10T21:27:57.286Z,97891.69
2023-05-10T21:30:24.973Z,97891.63
2023-05-10T21:32:52.569Z,97887.75
2023-05-10T21:35:20.101Z,97891.63
2023-05-10T21:37:47.618Z,97897.78
2023-05-10T21:40:15.534Z,97889.59
2023-05-10T21:42:43.229Z,97887.28
2023-05-10T21:45:11.182Z,97891.91
2023-05-10T21:47:38.730Z,97894.19
2023-05-10T21:50:06.848Z,97888.78
2023-05-10T21:52:34.392Z,97890.34
2023-05-10T21:55:02.072Z,97896.13
2023-05-10T21:57:31.100Z,97900.34
2023-05-10T21:59:58.774Z,97897.59
2023-05-10T22:02:26.329Z,97896.81
2023-05-10T22:04:53.959Z,97902.97
2023-05-10T22:07:21.533Z,97899.47
2023-05-10T22:09:49.045Z,97902.16
2023-05-10T22:12:16.606Z,97899.41
2023-05-10T22:14:44.149Z,97904.03
2023-05-10T22:17:11.811Z,97912.53
2023-05-10T22:19:39.315Z,97911.72
2023-05-10T22:22:06.836Z,97917.13
2023-05-10T22:24:34.413Z,97911.72
2023-05-10T22:27:03.323Z,97916.75
2023-05-10T22:29:30.999Z,97903.59
2023-05-10T22:31:59.078Z,97912.84
2023-05-10T22:34:27.091Z,97908.19
2023-05-10T22:36:54.653Z,97916.28
2023-05-10T22:39:22.250Z,97919.31
2023-05-10T22:41:49.680Z,97912.75
2023-05-10T22:44:18.023Z,97913.91
2023-05-10T22:46:46.144Z,97917.41
2023-05-10T22:49:14.086Z,97922.38
2023-05-10T22:51:41.627Z,97914.25
2023-05-10T22:54:09.241Z,97919.59
2023-05-10T22:56:36.836Z,97917.97
2023-05-10T22:59:04.478Z,97914.84
2023-05-10T23:01:32.083Z,97924.88
2023-05-10T23:03:59.899Z,97915.19
2023-05-10T23:06:28.542Z,97922.91
2023-05-10T23:08:56.088Z,97931.03
2023-05-10T23:11:23.559Z,97929.44
2023-05-10T23:13:51.712Z,97927.53
2023-05-10T23:16:19.290Z,97923.28
2023-05-10T23:18:46.916Z,97920.56
2023-05-10T23:21:14.698Z,97928.31
2023-05-10T23:23:42.245Z,97914.75
2023-05-10T23:26:09.827Z,97915.50
2023-05-10T23:28:37.372Z,97920.50
2023-05-10T23:31:05.052Z,97924.34
2023-05-10T23:33:32.605Z,97916.97
2023-05-10T23:36:00.230Z,97915.00
2023-05-10T23:38:27.760Z,97918.13
2023-05-10T23:40:55.368Z,97925.81
2023-05-10T23:43:23.101Z,97913.44
2023-05-10T23:45:57.624Z,97919.78
2023-05-10T23:48:25.595Z,97928.09
2023-05-10T23:50:53.318Z,97925.75
2023-05-10T23:53:20.901Z,97913.34
2023-05-10T23:55:48.529Z,97921.81
2023-05-10T23:58:16.146Z,97923.41
